Time;durP1;ratioP1;P1;durP2;ratioP2;P2;SDS_P1;SDS_P2;PMS_P1;PMS_P2;Temp;Humidity;BMP_temperature;BMP_pressure;BME280_temperature;BME280_humidity;BME280_pressure;Samples;Min_cycle;Max_cycle;Signal;HPM_P1;HPM_P2
2021/12/16 00:08:39;;;;;;;;;;;7.40;99.90;;;7.64;71.24;100042.59;6054370;23;19924;-83
2021/12/16 00:30:14;;;;;;;;;;;7.40;99.90;;;7.51;71.45;100046.25;6055355;23;20326;-83
2021/12/16 00:35:11;;;;;;;;;;;7.50;99.90;;;7.59;71.39;100035.16;6043368;23;21295;-84
2021/12/16 00:37:37;;;;;;;;;;;7.50;99.90;;;7.59;71.78;100037.84;6041672;23;19969;-83
2021/12/16 00:40:06;;;;;;;;;;;7.50;99.90;;;7.61;71.28;100033.88;6043194;23;19921;-82
2021/12/16 00:45:39;;;;;;;;;;;7.60;99.90;;;7.67;70.64;100031.34;6049245;23;19961;-84
2021/12/16 00:48:22;;;;;;;;;;;7.60;99.90;;;7.60;70.37;100026.00;6044479;23;19921;-83
2021/12/16 00:56:11;;;;;;;;;;;7.50;99.90;;;7.53;70.02;100030.63;6046806;23;19917;-83
2021/12/16 00:58:44;;;;;;;;;;;7.40;99.90;;;7.52;70.12;100029.00;6075969;23;19917;-83
2021/12/16 01:09:23;;;;;;;;;;;7.30;99.90;;;7.25;70.40;100023.88;6043274;23;19918;-82
2021/12/16 01:33:54;;;;;;;;;;;7.30;99.90;;;7.52;70.95;100012.78;6075999;23;19957;-83
2021/12/16 01:39:22;;;;;;;;;;;7.40;99.90;;;7.50;70.06;100004.91;6042847;23;19929;-83
2021/12/16 01:47:16;;;;;;;;;;;7.30;99.90;;;7.46;70.34;99998.31;6055106;23;20290;-83
2021/12/16 01:49:54;;;;;;;;;;;7.30;99.90;;;7.41;70.31;99991.94;6061335;23;20049;-83
2021/12/16 01:57:50;;;;;;;;;;;7.10;99.90;;;7.13;71.30;99983.28;6044612;23;19917;-83
2021/12/16 02:00:31;;;;;;;;;;;7.10;99.90;;;7.16;71.41;99985.53;6030163;23;19924;-83
2021/12/16 02:03:04;;;;;;;;;;;7.00;99.90;;;7.23;71.42;99976.56;6075287;23;19917;-83
2021/12/16 02:05:52;;;;;;;;;;;7.10;99.90;;;7.27;71.90;99975.03;6054188;23;19921;-83
2021/12/16 02:08:22;;;;;;;;;;;7.10;99.90;;;7.26;71.22;99970.72;6049792;23;19918;-83
2021/12/16 02:11:01;;;;;;;;;;;7.10;99.90;;;7.21;71.71;99967.84;6043224;23;19957;-83
2021/12/16 02:32:55;;;;;;;;;;;7.10;99.90;;;7.10;72.17;99972.13;6055911;23;19956;-83
2021/12/16 02:37:58;;;;;;;;;;;7.00;99.90;;;7.07;72.35;99968.00;6053338;23;20003;-83
2021/12/16 02:40:24;;;;;;;;;;;7.00;99.90;;;7.10;71.96;99966.72;6042860;23;19921;-83
2021/12/16 02:43:01;;;;;;;;;;;7.00;99.90;;;7.08;72.22;99975.03;6020424;23;20369;-83
2021/12/16 02:48:29;;;;;;;;;;;7.10;99.90;;;7.29;71.78;99965.69;6047671;23;19977;-83
2021/12/16 02:51:00;;;;;;;;;;;7.10;99.90;;;7.30;72.08;99967.34;6060364;23;19924;-83
2021/12/16 02:53:26;;;;;;;;;;;7.20;99.90;;;7.36;71.77;99965.63;6054270;23;19917;-83
2021/12/16 02:55:53;;;;;;;;;;;7.20;99.90;;;7.39;71.73;99965.16;6044233;23;19924;-83
2021/12/16 02:58:19;;;;;;;;;;;7.20;99.90;;;7.36;72.51;99962.91;6020315;23;19964;-83
2021/12/16 03:00:49;;;;;;;;;;;7.30;99.90;;;7.46;71.97;99963.22;6044409;23;20470;-83
2021/12/16 03:03:15;;;;;;;;;;;7.30;99.90;;;7.44;71.36;99951.81;6044224;23;19921;-83
2021/12/16 03:05:42;;;;;;;;;;;7.40;99.90;;;7.47;72.16;99959.47;6043591;23;19996;-83
2021/12/16 03:08:08;;;;;;;;;;;7.40;99.90;;;7.44;72.20;99959.09;6019411;23;19930;-83
2021/12/16 03:13:29;;;;;;;;;;;7.50;99.90;;;7.51;71.84;99955.28;6056446;23;19986;-83
2021/12/16 03:16:12;;;;;;;;;;;7.50;99.90;;;7.51;71.75;99952.56;6055579;23;19918;-83
2021/12/16 03:18:52;;;;;;;;;;;7.50;99.90;;;7.65;72.09;99957.81;6059715;23;20000;-83
2021/12/16 03:21:27;;;;;;;;;;;7.60;99.90;;;7.65;71.80;99958.63;6057423;23;19940;-83
2021/12/16 03:40:08;;;;;;;;;;;7.70;99.90;;;7.70;71.84;99957.97;6049323;23;20004;-83
2021/12/16 03:42:43;;;;;;;;;;;7.70;99.90;;;7.69;71.87;99970.66;6056702;23;19996;-83
2021/12/16 03:48:29;;;;;;;;;;;7.70;99.90;;;7.89;71.71;99970.41;6038398;23;19928;-83
2021/12/16 03:50:55;;;;;;;;;;;7.70;99.90;;;7.87;71.52;99967.09;6067866;23;20744;-83
2021/12/16 03:53:21;;;;;;;;;;;7.70;99.90;;;7.87;71.59;99977.91;6019745;23;20350;-83
2021/12/16 03:55:47;;;;;;;;;;;7.80;99.90;;;7.87;71.39;99971.69;6042973;23;19918;-83
2021/12/16 03:58:13;;;;;;;;;;;7.70;99.90;;;7.86;71.46;99970.88;6042947;23;19960;-83
2021/12/16 04:00:43;;;;;;;;;;;7.80;99.90;;;7.85;71.60;99974.59;6043421;23;19924;-83
2021/12/16 04:03:09;;;;;;;;;;;7.80;99.90;;;7.83;71.58;99971.28;6043933;23;19969;-83
2021/12/16 04:05:36;;;;;;;;;;;7.80;99.90;;;7.80;71.39;99974.47;6044149;23;20294;-83
2021/12/16 04:08:02;;;;;;;;;;;7.80;99.90;;;7.91;71.43;99973.72;6043394;23;19937;-83
2021/12/16 04:10:37;;;;;;;;;;;7.80;99.90;;;7.85;71.93;99968.38;6043402;23;19917;-83
2021/12/16 04:13:05;;;;;;;;;;;7.80;99.90;;;7.82;72.17;99969.66;6043894;23;19921;-83
2021/12/16 04:15:31;;;;;;;;;;;7.80;99.90;;;7.89;72.14;99970.41;6043256;23;20334;-83
2021/12/16 04:17:57;;;;;;;;;;;7.80;99.90;;;7.82;72.03;99973.19;6042676;23;19998;-83
2021/12/16 04:20:23;;;;;;;;;;;7.80;99.90;;;7.82;72.38;99965.06;6043320;23;20061;-83
2021/12/16 04:22:49;;;;;;;;;;;7.80;99.90;;;7.86;71.94;99973.56;6042667;23;20329;-83
2021/12/16 04:25:19;;;;;;;;;;;7.80;99.90;;;7.92;72.16;99975.34;6019696;23;19925;-83
2021/12/16 04:27:45;;;;;;;;;;;7.80;99.90;;;7.89;71.62;99978.50;6043763;23;19921;-83
2021/12/16 04:30:12;;;;;;;;;;;7.80;99.90;;;7.86;72.00;99976.28;6043508;23;19921;-83
2021/12/16 04:32:37;;;;;;;;;;;7.80;99.90;;;7.82;72.15;99994.78;6043054;23;19984;-83
2021/12/16 04:35:04;;;;;;;;;;;7.80;99.90;;;7.76;72.34;99981.34;6027160;23;19956;-83
2021/12/16 04:37:30;;;;;;;;;;;7.80;99.90;;;7.76;72.69;99984.91;6043440;23;20337;-83
2021/12/16 04:39:58;;;;;;;;;;;7.70;99.90;;;7.70;72.39;99987.66;6020178;23;19924;-83
2021/12/16 04:42:26;;;;;;;;;;;7.70;99.90;;;7.73;72.86;99993.44;6044425;23;20008;-82
2021/12/16 04:44:52;;;;;;;;;;;7.70;99.90;;;7.78;72.75;99995.47;6018172;23;19921;-82
2021/12/16 04:47:17;;;;;;;;;;;7.70;99.90;;;7.76;72.57;100000.25;6042408;23;19921;-82
2021/12/16 04:49:43;;;;;;;;;;;7.70;99.90;;;7.68;72.85;99995.16;6017793;23;20319;-81
2021/12/16 04:52:14;;;;;;;;;;;7.70;99.90;;;7.68;72.88;99990.59;6018036;23;19941;-82
2021/12/16 04:54:40;;;;;;;;;;;7.60;99.90;;;7.73;72.95;99992.59;6049963;23;19928;-82
2021/12/16 04:57:07;;;;;;;;;;;7.60;99.90;;;7.72;73.39;99988.28;6062871;23;20008;-82
2021/12/16 04:59:33;;;;;;;;;;;7.60;99.90;;;7.61;73.17;99998.78;6039132;23;19921;-82
2021/12/16 05:02:05;;;;;;;;;;;7.60;99.90;;;7.71;73.32;99984.75;6039096;23;20235;-82
2021/12/16 05:04:31;;;;;;;;;;;7.60;99.90;;;7.83;72.43;99991.03;6049360;23;19917;-82
2021/12/16 05:06:57;;;;;;;;;;;7.60;99.90;;;7.80;72.88;99996.06;6015295;23;19918;-82
2021/12/16 05:09:58;;;;;;;;;;;7.70;99.90;;;7.74;72.33;99994.28;6036376;23;19921;-82
2021/12/16 05:12:14;;;;;;;;;;;7.70;99.90;;;7.71;72.82;99998.25;6050846;23;19925;-82
2021/12/16 05:14:40;;;;;;;;;;;7.60;99.90;;;7.74;72.91;99999.69;6047336;23;20004;-83
2021/12/16 05:17:12;;;;;;;;;;;7.60;99.90;;;7.77;72.54;99991.13;6036838;23;19945;-83
2021/12/16 05:19:44;;;;;;;;;;;7.70;99.90;;;7.83;72.95;99999.13;6026424;23;19971;-83
2021/12/16 05:24:55;;;;;;;;;;;7.70;99.90;;;7.82;73.04;99997.50;6051871;23;20282;-83
2021/12/16 05:27:21;;;;;;;;;;;7.70;99.90;;;7.80;72.56;100005.00;6063330;23;19922;-83
2021/12/16 05:29:46;;;;;;;;;;;7.70;99.90;;;7.88;72.56;100001.16;6039095;23;19918;-83
2021/12/16 05:32:12;;;;;;;;;;;7.70;99.90;;;7.87;72.63;100004.09;6040606;23;19928;-83
2021/12/16 05:34:38;;;;;;;;;;;7.70;99.90;;;7.89;72.49;100008.22;6039991;23;20356;-82
2021/12/16 05:37:05;;;;;;;;;;;7.70;99.90;;;7.86;72.60;100003.28;6015437;23;19926;-83
2021/12/16 05:39:31;;;;;;;;;;;7.80;99.90;;;7.80;72.70;100012.28;6041750;23;19949;-83
2021/12/16 05:41:57;;;;;;;;;;;7.80;99.90;;;7.88;72.68;100011.97;6017072;23;19917;-82
2021/12/16 05:44:23;;;;;;;;;;;7.80;99.90;;;7.86;72.93;100013.25;6037199;23;19924;-82
2021/12/16 05:46:49;;;;;;;;;;;7.80;99.90;;;7.84;72.70;100016.19;6037653;23;19918;-82
2021/12/16 05:49:15;;;;;;;;;;;7.70;99.90;;;7.80;72.36;100012.28;6038063;23;19950;-81
2021/12/16 05:51:42;;;;;;;;;;;7.70;99.90;;;7.91;72.44;100011.53;6039333;23;19921;-81
2021/12/16 05:54:08;;;;;;;;;;;7.80;99.90;;;7.97;71.80;100016.00;6038877;23;19980;-81
2021/12/16 05:56:34;;;;;;;;;;;7.80;99.90;;;8.04;72.09;100014.06;6039108;23;20270;-81
2021/12/16 05:59:00;;;;;;;;;;;7.90;99.90;;;8.05;71.70;100020.28;6038155;23;19928;-81
2021/12/16 06:01:29;;;;;;;;;;;7.90;99.90;;;8.02;71.70;100018.88;6015750;23;19957;-81
2021/12/16 06:03:55;;;;;;;;;;;8.00;99.90;;;8.03;71.87;100006.16;6038663;23;20247;-81
2021/12/16 06:06:21;;;;;;;;;;;8.00;99.90;;;8.09;71.56;100013.38;6062870;23;19949;-81
2021/12/16 06:08:47;;;;;;;;;;;8.00;99.90;;;8.04;71.28;100014.06;6038595;23;19921;-81
2021/12/16 06:13:48;;;;;;;;;;;8.00;99.90;;;8.04;71.90;100016.75;6038468;23;19921;-81
2021/12/16 06:27:21;;;;;;;;;;;8.00;99.90;;;8.11;71.35;100010.44;6059666;23;20352;-78
2021/12/16 06:29:48;;;;;;;;;;;8.10;99.90;;;8.22;70.90;100015.91;6045257;23;20005;-79
2021/12/16 06:32:14;;;;;;;;;;;8.10;99.90;;;8.18;70.46;100017.41;6035389;23;20294;-78
2021/12/16 06:34:41;;;;;;;;;;;8.10;99.90;;;8.18;71.45;100016.59;6033084;23;19929;-78
2021/12/16 06:37:07;;;;;;;;;;;8.10;99.90;;;8.29;70.80;100020.38;6058323;23;20257;-78
2021/12/16 06:39:33;;;;;;;;;;;8.10;99.90;;;8.34;70.32;100021.34;6034925;23;19960;-78
2021/12/16 06:41:59;;;;;;;;;;;8.20;99.90;;;8.27;70.41;100024.16;6035677;23;20375;-78
2021/12/16 06:44:30;;;;;;;;;;;8.20;99.90;;;8.35;70.22;100022.19;6059390;23;19927;-78
2021/12/16 06:47:03;;;;;;;;;;;8.20;99.90;;;8.38;70.15;100022.56;6045630;23;19973;-78
2021/12/16 06:49:30;;;;;;;;;;;8.30;99.90;;;8.28;70.08;100022.28;6046545;23;19965;-78
2021/12/16 06:52:00;;;;;;;;;;;8.20;99.90;;;8.27;70.21;100013.34;6058878;23;20412;-78
2021/12/16 06:54:31;;;;;;;;;;;8.20;99.90;;;8.22;70.75;100007.81;6035780;23;19921;-78
2021/12/16 06:59:52;;;;;;;;;;;8.30;99.90;;;8.31;69.91;100019.09;6059933;23;20360;-78
2021/12/16 07:03:06;;;;;;;;;;;8.30;99.90;;;8.32;70.30;100018.06;6045629;23;20004;-78
2021/12/16 07:05:05;;;;;;;;;;;8.30;99.90;;;8.31;70.14;100013.69;6032158;23;19921;-78
2021/12/16 07:07:31;;;;;;;;;;;8.30;99.90;;;8.31;70.06;100013.69;6035182;23;20032;-78
2021/12/16 07:09:57;;;;;;;;;;;8.30;99.90;;;8.34;70.50;100015.13;6034135;23;19943;-78
2021/12/16 07:12:34;;;;;;;;;;;8.30;99.90;;;8.39;70.18;100013.41;6033937;23;19921;-78
2021/12/16 07:15:05;;;;;;;;;;;8.40;99.90;;;8.33;69.81;100024.28;6045934;23;20250;-78
2021/12/16 07:17:31;;;;;;;;;;;8.40;99.90;;;8.39;69.73;100015.25;6069316;23;19992;-78
2021/12/16 07:19:57;;;;;;;;;;;8.30;99.90;;;8.43;69.76;100022.72;6060554;23;19921;-78
2021/12/16 07:22:26;;;;;;;;;;;8.40;99.90;;;8.48;69.14;100020.16;6013708;23;19948;-78
2021/12/16 07:24:52;;;;;;;;;;;8.40;99.90;;;8.44;69.80;100018.13;6014175;23;20016;-78
2021/12/16 07:27:18;;;;;;;;;;;8.40;99.90;;;8.44;69.66;100013.53;6014792;23;20410;-78
2021/12/16 07:29:44;;;;;;;;;;;8.40;99.90;;;8.40;69.54;100015.06;6062606;23;19917;-78
2021/12/16 07:32:09;;;;;;;;;;;8.40;99.90;;;8.42;69.73;100010.25;6060440;23;20286;-79
2021/12/16 07:34:36;;;;;;;;;;;8.40;99.90;;;8.48;69.54;100012.03;6040396;23;19949;-79
2021/12/16 07:37:04;;;;;;;;;;;8.40;99.90;;;8.48;69.16;100012.03;6062452;23;19921;-78
2021/12/16 07:39:37;;;;;;;;;;;8.40;99.90;;;8.52;68.79;100011.56;6038975;23;19972;-78
2021/12/16 07:42:05;;;;;;;;;;;8.40;99.90;;;8.50;68.72;100016.38;6027130;23;20736;-78
2021/12/16 07:44:32;;;;;;;;;;;8.40;99.90;;;8.47;68.96;100010.41;6039649;23;19922;-78
2021/12/16 07:47:01;;;;;;;;;;;8.40;99.90;;;8.48;68.52;100005.81;6017109;23;20238;-78
2021/12/16 07:49:28;;;;;;;;;;;8.40;99.90;;;8.53;68.57;99997.84;6063610;23;19960;-78
2021/12/16 07:51:54;;;;;;;;;;;8.40;99.90;;;8.53;68.63;100014.06;6039965;23;20362;-78
2021/12/16 07:54:20;;;;;;;;;;;8.50;99.90;;;8.51;69.07;100010.75;6013597;23;20242;-78
2021/12/16 07:56:47;;;;;;;;;;;8.50;99.90;;;8.66;68.65;100013.03;6065135;23;19961;-78
2021/12/16 07:59:13;;;;;;;;;;;8.60;99.90;;;8.73;68.49;100013.75;6041055;23;19921;-78
2021/12/16 08:01:39;;;;;;;;;;;8.60;99.90;;;8.80;68.49;100019.06;6017400;23;19922;-78
2021/12/16 08:04:06;;;;;;;;;;;8.70;99.90;;;8.80;68.32;100028.03;6041548;23;19921;-79
2021/12/16 08:06:32;;;;;;;;;;;8.80;99.90;;;8.66;68.01;100035.50;6065531;23;20266;-80
2021/12/16 08:09:00;;;;;;;;;;;8.70;99.90;;;8.67;68.65;100031.72;6063942;23;19922;-80
2021/12/16 08:11:28;;;;;;;;;;;8.70;99.90;;;8.75;68.21;100030.59;6063026;23;20305;-80
2021/12/16 08:13:53;;;;;;;;;;;8.70;99.90;;;8.73;68.58;100040.81;6039042;23;19928;-79
2021/12/16 08:16:22;;;;;;;;;;;8.70;99.90;;;8.80;67.97;100030.72;6063644;23;19921;-80
2021/12/16 08:18:52;;;;;;;;;;;8.80;99.90;;;8.78;68.06;100030.13;6040830;23;20337;-79
2021/12/16 08:21:18;;;;;;;;;;;8.70;99.90;;;8.72;68.07;100028.31;6066365;23;19917;-79
2021/12/16 08:23:44;;;;;;;;;;;8.80;99.90;;;8.84;67.61;100036.47;6040227;23;20102;-79
2021/12/16 08:26:11;;;;;;;;;;;8.80;99.90;;;8.90;67.21;100038.25;6040581;23;19973;-79
2021/12/16 08:28:37;;;;;;;;;;;8.80;99.90;;;8.98;67.67;100031.66;6040202;23;19925;-79
2021/12/16 08:31:05;;;;;;;;;;;8.90;99.90;;;9.04;67.13;100037.00;6039783;23;19921;-79
2021/12/16 08:33:31;;;;;;;;;;;8.90;99.90;;;9.08;66.86;100037.34;6040138;23;19988;-79
2021/12/16 08:35:57;;;;;;;;;;;9.00;99.90;;;9.05;67.80;100037.81;6061972;23;19968;-79
2021/12/16 08:38:24;;;;;;;;;;;9.00;99.90;;;9.11;67.23;100039.59;6063912;23;19976;-79
2021/12/16 08:40:51;;;;;;;;;;;9.00;99.90;;;9.10;66.74;100029.81;6063169;23;20000;-79
2021/12/16 08:43:17;;;;;;;;;;;9.10;99.90;;;9.07;67.33;100035.69;6039369;23;19918;-79
2021/12/16 08:45:43;;;;;;;;;;;9.10;99.90;;;9.04;67.34;100039.69;6039506;23;19996;-79
2021/12/16 08:48:09;;;;;;;;;;;9.10;99.90;;;9.11;67.26;100028.78;6015674;23;20012;-79
2021/12/16 08:50:36;;;;;;;;;;;9.00;99.90;;;9.08;67.02;100032.78;6063415;23;20313;-79
2021/12/16 08:53:03;;;;;;;;;;;9.10;99.90;;;9.17;66.90;100038.66;6040381;23;19924;-79
2021/12/16 08:55:30;;;;;;;;;;;9.10;99.90;;;9.12;67.28;100033.13;6040238;23;20328;-79
2021/12/16 08:57:56;;;;;;;;;;;9.10;99.90;;;9.08;67.62;100031.91;6038464;23;19928;-79
2021/12/16 09:00:28;;;;;;;;;;;9.20;99.90;;;9.11;67.40;100026.06;6061721;23;19921;-80
2021/12/16 09:02:56;;;;;;;;;;;9.20;99.90;;;9.12;66.69;100027.69;6039651;23;19944;-79
2021/12/16 09:05:23;;;;;;;;;;;9.20;99.90;;;9.14;67.39;100028.28;6039901;23;19925;-79
2021/12/16 09:07:49;;;;;;;;;;;9.30;99.90;;;9.15;67.27;100027.22;6039705;23;19960;-79
2021/12/16 09:10:21;;;;;;;;;;;9.30;99.90;;;9.12;66.78;100023.09;6038979;23;20350;-79
2021/12/16 09:15:16;;;;;;;;;;;9.30;99.90;;;9.29;66.56;100022.44;6062560;23;20654;-79
2021/12/16 09:17:42;;;;;;;;;;;9.30;99.90;;;9.38;66.00;100018.28;6064125;23;20242;-79
2021/12/16 09:20:11;;;;;;;;;;;9.40;99.90;;;9.41;65.60;100023.22;6016113;23;19922;-79
2021/12/16 09:22:37;;;;;;;;;;;9.50;99.90;;;9.46;65.33;100017.91;6063730;23;20348;-80
2021/12/16 09:25:03;;;;;;;;;;;9.50;99.90;;;9.48;65.95;100026.63;6016957;23;19921;-80
2021/12/16 09:27:32;;;;;;;;;;;9.60;99.90;;;9.50;65.77;100026.41;6064828;23;19922;-79
2021/12/16 09:29:58;;;;;;;;;;;9.60;99.90;;;9.60;65.21;100017.69;6015665;23;19917;-79
2021/12/16 09:32:28;;;;;;;;;;;9.70;99.90;;;9.66;65.15;100022.97;6059561;23;19921;-80
2021/12/16 09:34:54;;;;;;;;;;;9.80;99.90;;;9.92;64.88;100024.38;6015969;23;19980;-79
2021/12/16 09:37:20;;;;;;;;;;;9.90;99.90;;;10.02;64.38;100020.19;6064065;23;20027;-79
2021/12/16 09:39:46;;;;;;;;;;;10.00;99.90;;;10.06;63.15;100014.06;6037300;23;19944;-79
2021/12/16 09:42:12;;;;;;;;;;;10.20;99.90;;;10.10;62.99;100017.94;6015435;23;19921;-79
2021/12/16 09:44:38;;;;;;;;;;;10.30;99.90;;;10.11;63.26;100006.03;6014658;23;19933;-79
2021/12/16 09:47:07;;;;;;;;;;;10.30;99.90;;;10.19;63.61;100005.63;6036757;23;19945;-79
2021/12/16 09:49:32;;;;;;;;;;;10.30;99.90;;;10.23;63.14;100003.28;6061840;23;20008;-78
2021/12/16 09:52:02;;;;;;;;;;;10.40;99.90;;;10.38;62.86;99997.34;6013823;23;19921;-79
2021/12/16 09:54:29;;;;;;;;;;;10.40;99.90;;;10.41;61.72;99991.44;6040289;23;19928;-79
2021/12/16 09:56:55;;;;;;;;;;;10.60;99.90;;;10.47;62.61;99987.75;6061944;23;19938;-79
2021/12/16 09:59:23;;;;;;;;;;;10.60;99.90;;;10.55;62.10;99991.94;6016672;23;20269;-79
2021/12/16 10:01:50;;;;;;;;;;;10.70;99.90;;;10.54;61.77;99987.59;6039944;23;19951;-79
2021/12/16 10:04:19;;;;;;;;;;;10.80;99.90;;;10.39;62.10;99988.97;6040449;23;20000;-79
2021/12/16 10:06:47;;;;;;;;;;;10.70;99.90;;;10.32;62.18;99982.84;6040411;23;19949;-79
2021/12/16 10:09:13;;;;;;;;;;;10.60;99.90;;;10.31;62.82;99974.97;6040523;23;19921;-79
2021/12/16 10:11:41;;;;;;;;;;;10.50;99.90;;;10.34;62.13;99975.31;6039639;23;19936;-79
2021/12/16 10:19:24;;;;;;;;;;;10.50;99.90;;;10.27;62.48;99968.34;6051477;23;20393;-79
2021/12/16 10:21:51;;;;;;;;;;;10.50;99.90;;;10.22;62.52;99964.47;6037953;23;19928;-79
2021/12/16 10:24:28;;;;;;;;;;;10.40;99.90;;;10.23;62.88;99973.47;6039113;23;19921;-80
2021/12/16 10:27:08;;;;;;;;;;;10.30;99.90;;;10.17;63.65;99964.38;6014868;23;19965;-79
2021/12/16 10:29:58;;;;;;;;;;;10.30;99.90;;;10.16;63.12;99961.94;6061759;23;20290;-79
2021/12/16 10:32:35;;;;;;;;;;;10.20;99.90;;;10.32;63.20;99966.59;6061350;23;19971;-79
2021/12/16 10:35:08;;;;;;;;;;;10.40;99.90;;;10.38;62.57;99951.22;6094950;23;20353;-79
2021/12/16 10:37:36;;;;;;;;;;;10.50;99.90;;;10.61;62.52;99958.44;6047175;23;20284;-79
2021/12/16 10:40:40;;;;;;;;;;;10.70;99.90;;;10.70;62.36;99951.50;6061346;23;19925;-79
2021/12/16 10:43:34;;;;;;;;;;;10.80;99.90;;;10.49;62.98;99955.78;6036210;23;19945;-78
2021/12/16 10:46:09;;;;;;;;;;;10.80;99.90;;;10.41;62.89;99969.75;6059649;23;19922;-78
2021/12/16 10:48:43;;;;;;;;;;;10.60;99.90;;;10.27;63.69;99965.66;6045961;23;20007;-78
2021/12/16 10:51:10;;;;;;;;;;;10.50;99.90;;;10.11;63.49;99965.34;6047675;23;19921;-78
2021/12/16 10:53:53;;;;;;;;;;;10.40;99.90;;;10.09;64.89;99970.19;6060875;23;19922;-78
2021/12/16 10:56:41;;;;;;;;;;;10.30;99.90;;;10.23;65.08;99968.03;6069351;23;20024;-77
2021/12/16 10:59:07;;;;;;;;;;;10.30;99.90;;;10.24;64.82;99971.56;6048842;23;20159;-78
2021/12/16 11:01:35;;;;;;;;;;;10.30;99.90;;;10.22;64.69;99967.19;6062349;23;20024;-78
2021/12/16 11:04:03;;;;;;;;;;;10.40;99.90;;;10.28;64.71;99962.72;6037419;23;20279;-78
2021/12/16 11:06:38;;;;;;;;;;;10.40;99.90;;;10.27;64.70;99958.31;6061332;23;19960;-78
2021/12/16 11:09:23;;;;;;;;;;;10.40;99.90;;;10.29;65.01;99948.09;6040544;23;19922;-77
2021/12/16 11:12:03;;;;;;;;;;;10.40;99.90;;;10.36;65.13;99958.81;6081074;23;19917;-77
2021/12/16 11:14:29;;;;;;;;;;;10.50;99.90;;;10.39;64.56;99950.16;6021754;23;19952;-77
2021/12/16 11:17:00;;;;;;;;;;;10.60;99.90;;;10.48;65.02;99953.28;6034955;23;19931;-77
2021/12/16 11:19:48;;;;;;;;;;;10.60;99.90;;;10.56;64.66;99951.03;6068443;23;19961;-77
2021/12/16 11:22:20;;;;;;;;;;;10.80;99.90;;;10.60;64.96;99940.50;6060187;23;19964;-77
2021/12/16 11:24:46;;;;;;;;;;;10.80;99.90;;;10.64;64.11;99955.22;6056466;23;19960;-78
2021/12/16 11:27:27;;;;;;;;;;;10.80;99.90;;;10.57;64.57;99958.09;6010568;23;20234;-78
2021/12/16 11:29:53;;;;;;;;;;;10.70;99.90;;;10.48;64.51;99954.16;6044302;23;20405;-78
2021/12/16 11:32:40;;;;;;;;;;;10.70;99.90;;;10.40;64.67;99940.97;6010863;23;20207;-77
2021/12/16 11:35:30;;;;;;;;;;;10.70;99.90;;;10.40;64.90;99936.34;6057900;23;19957;-77
2021/12/16 11:37:58;;;;;;;;;;;10.60;99.90;;;10.35;64.69;99938.16;6091214;23;19948;-77
2021/12/16 11:40:25;;;;;;;;;;;10.60;99.90;;;10.32;65.42;99933.22;6045377;23;19957;-77
2021/12/16 11:42:58;;;;;;;;;;;10.60;99.90;;;10.40;65.61;99940.97;6034875;23;19921;-77
2021/12/16 11:45:35;;;;;;;;;;;10.60;99.90;;;10.37;64.88;99925.19;6057323;23;20262;-77
2021/12/16 11:48:02;;;;;;;;;;;10.70;99.90;;;10.26;65.54;99936.91;6034651;23;19999;-77
2021/12/16 11:50:40;;;;;;;;;;;10.60;99.90;;;10.06;65.22;99929.22;6060057;23;20417;-77
2021/12/16 11:53:08;;;;;;;;;;;10.50;99.90;;;9.93;65.51;99938.44;6034886;23;20013;-78
2021/12/16 11:55:35;;;;;;;;;;;10.40;99.90;;;9.99;65.77;99934.75;6058615;23;20334;-78
2021/12/16 11:58:03;;;;;;;;;;;10.20;99.90;;;9.92;65.44;99936.78;6035111;23;19924;-78
2021/12/16 12:00:35;;;;;;;;;;;10.20;99.90;;;9.89;65.91;99929.13;6035577;23;20033;-77
2021/12/16 12:03:10;;;;;;;;;;;10.10;99.90;;;10.00;66.61;99933.72;6010960;23;20001;-77
2021/12/16 12:05:40;;;;;;;;;;;10.20;99.90;;;10.34;65.80;99945.47;6068206;23;20012;-77
2021/12/16 12:08:15;;;;;;;;;;;10.40;99.90;;;10.25;65.53;99941.47;6034685;23;20313;-77
2021/12/16 12:10:46;;;;;;;;;;;10.50;99.90;;;10.19;65.75;99939.75;6068668;23;19922;-77
2021/12/16 12:13:20;;;;;;;;;;;10.40;99.90;;;10.08;65.90;99944.16;6045068;23;19956;-77
2021/12/16 12:16:07;;;;;;;;;;;10.30;99.90;;;10.03;66.19;99935.13;6070097;23;20004;-77
2021/12/16 12:18:46;;;;;;;;;;;10.20;99.90;;;9.99;65.75;99924.72;6070086;23;19937;-77
2021/12/16 12:21:45;;;;;;;;;;;10.20;99.90;;;9.93;66.52;99920.28;6058791;23;19921;-77
2021/12/16 12:24:16;;;;;;;;;;;10.10;99.90;;;9.94;66.27;99927.34;6060591;23;20248;-77
2021/12/16 12:26:59;;;;;;;;;;;10.10;99.90;;;9.82;67.35;99918.47;6068150;23;19922;-77
2021/12/16 12:29:32;;;;;;;;;;;10.00;99.90;;;9.96;66.79;99927.13;6044243;23;20326;-77
2021/12/16 12:32:09;;;;;;;;;;;10.00;99.90;;;9.87;66.89;99926.69;6058616;23;20004;-77
2021/12/16 12:34:35;;;;;;;;;;;10.00;99.90;;;9.76;66.36;99935.66;6035925;23;19922;-77
2021/12/16 12:37:03;;;;;;;;;;;9.90;99.90;;;9.74;67.09;99935.94;6035016;23;19922;-77
2021/12/16 12:39:36;;;;;;;;;;;9.90;99.90;;;9.65;66.79;99942.78;6059702;23;19921;-77
2021/12/16 12:42:02;;;;;;;;;;;9.80;99.90;;;9.61;66.98;99936.16;6044723;23;19937;-77
2021/12/16 12:44:28;;;;;;;;;;;9.70;99.90;;;9.57;67.93;99929.59;6058689;23;19917;-77
2021/12/16 12:46:54;;;;;;;;;;;9.70;99.90;;;9.57;67.61;99930.41;6037717;23;20193;-77
2021/12/16 12:49:25;;;;;;;;;;;9.60;99.90;;;9.59;67.16;99924.75;6037763;23;19956;-77
2021/12/16 12:51:51;;;;;;;;;;;9.60;99.90;;;9.61;67.41;99924.53;6048082;23;19921;-77
2021/12/16 12:54:27;;;;;;;;;;;9.60;99.90;;;9.56;67.24;99926.06;6038424;23;19956;-77
2021/12/16 12:57:00;;;;;;;;;;;9.60;99.90;;;9.62;67.84;99926.19;6037831;23;20361;-77
2021/12/16 12:59:37;;;;;;;;;;;9.60;99.90;;;9.61;67.36;99930.75;6072079;23;19924;-79
2021/12/16 13:02:13;;;;;;;;;;;9.70;99.90;;;9.64;67.60;99921.31;6038289;23;20604;-79
2021/12/16 13:04:59;;;;;;;;;;;9.70;99.90;;;9.64;67.57;99916.75;6071878;23;19922;-79
2021/12/16 13:07:35;;;;;;;;;;;9.70;99.90;;;9.63;67.43;99920.50;6071514;23;20415;-80
2021/12/16 13:10:23;;;;;;;;;;;9.70;99.90;;;9.57;68.08;99913.34;6062780;23;19924;-81
2021/12/16 13:13:14;;;;;;;;;;;9.70;99.90;;;9.63;67.63;99914.28;6039795;23;19921;-81
2021/12/16 13:26:40;;;;;;;;;;;9.50;99.90;;;9.47;68.36;99935.63;6073357;23;19922;-80
2021/12/16 13:29:21;;;;;;;;;;;9.50;99.90;;;9.43;68.85;99936.34;6038714;23;19921;-80
2021/12/16 13:32:12;;;;;;;;;;;9.40;99.90;;;9.33;68.88;99926.91;6049507;23;19924;-80
2021/12/16 13:34:48;;;;;;;;;;;9.40;99.90;;;9.33;69.58;99931.53;6051454;23;20443;-80
2021/12/16 13:37:30;;;;;;;;;;;9.40;99.90;;;9.31;69.48;99931.78;6060507;23;20005;-80
2021/12/16 13:40:04;;;;;;;;;;;9.40;99.90;;;9.45;69.00;99929.63;6041261;23;19932;-80
2021/12/16 13:42:55;;;;;;;;;;;9.40;99.90;;;9.41;68.73;99933.84;6039148;23;19925;-80
2021/12/16 13:45:37;;;;;;;;;;;9.40;99.90;;;9.45;68.75;99939.63;6071948;23;20328;-80
2021/12/16 14:04:51;;;;;;;;;;;9.40;99.90;;;9.45;69.47;99905.25;6049750;23;20381;-83
2021/12/16 14:10:18;;;;;;;;;;;9.40;99.90;;;9.31;69.96;99912.81;6063062;23;19925;-82
2021/12/16 14:16:37;;;;;;;;;;;9.30;99.90;;;9.23;69.93;99934.00;6064069;23;20004;-83
2021/12/16 14:35:53;;;;;;;;;;;9.20;99.90;;;9.27;69.77;99930.59;6037551;23;19944;-82
2021/12/16 14:41:12;;;;;;;;;;;9.20;99.90;;;9.20;70.33;99937.19;6053076;23;19960;-82
2021/12/16 14:46:39;;;;;;;;;;;9.20;99.90;;;9.19;70.04;99943.69;6014239;23;19919;-82
2021/12/16 14:49:05;;;;;;;;;;;9.10;99.90;;;9.17;70.77;99943.09;6028441;23;20016;-82
2021/12/16 14:51:31;;;;;;;;;;;9.10;99.90;;;9.13;70.89;99945.41;6041342;23;19921;-82
2021/12/16 14:53:57;;;;;;;;;;;9.10;99.90;;;9.20;70.38;99951.53;6041858;23;19953;-83
2021/12/16 14:56:28;;;;;;;;;;;9.10;99.90;;;9.15;70.42;99954.13;6040876;23;19944;-83
2021/12/16 14:58:56;;;;;;;;;;;9.10;99.90;;;9.11;70.03;99963.81;6051507;23;20333;-82
2021/12/16 15:01:25;;;;;;;;;;;9.10;99.90;;;9.11;70.66;99961.09;6041843;23;19956;-82
2021/12/16 15:03:51;;;;;;;;;;;9.00;99.90;;;9.06;70.99;99960.97;6065250;23;19987;-82
2021/12/16 15:06:23;;;;;;;;;;;9.00;99.90;;;8.98;71.46;99955.91;6017748;23;19945;-82
2021/12/16 15:35:40;;;;;;;;;;;9.10;99.90;;;9.14;70.51;99936.25;6053626;23;19937;-82
2021/12/16 15:45:09;;;;;;;;;;;9.10;99.90;;;9.15;70.23;99929.78;6043325;23;20229;-80
2021/12/16 15:47:42;;;;;;;;;;;9.10;99.90;;;9.11;70.88;99942.16;6062742;23;19921;-80